createdAt,value
2023-05-04T00:02:10.151Z,2.33
2023-05-04T00:04:37.755Z,2.45
2023-05-04T00:07:05.343Z,2.05
2023-05-04T00:09:32.820Z,2.13
2023-05-04T00:12:00.285Z,2.00
2023-05-04T00:14:27.866Z,1.83
2023-05-04T00:16:55.367Z,2.28
2023-05-04T00:19:22.940Z,2.42
2023-05-04T00:21:50.586Z,1.90
2023-05-04T00:24:18.199Z,2.05
2023-05-04T00:26:45.778Z,2.08
2023-05-04T00:29:13.169Z,2.70
2023-05-04T00:31:40.687Z,2.28
2023-05-04T00:34:08.437Z,1.70
2023-05-04T00:36:35.935Z,2.30
2023-05-04T00:39:03.762Z,2.60
2023-05-04T00:41:31.064Z,2.67
2023-05-04T00:43:59.273Z,2.28
2023-05-04T00:46:26.844Z,2.20
2023-05-04T00:48:54.667Z,2.75
2023-05-04T00:51:24.390Z,2.47
2023-05-04T00:53:55.065Z,2.58
2023-05-04T00:56:24.278Z,2.05
2023-05-04T00:58:57.294Z,2.40
2023-05-04T01:01:25.459Z,2.53
2023-05-04T01:03:55.828Z,2.17
2023-05-04T01:07:05.753Z,2.85
2023-05-04T01:09:49.302Z,2.20
2023-05-04T01:12:32.931Z,1.95
2023-05-04T01:15:02.443Z,1.92
2023-05-04T01:17:30.141Z,2.92
2023-05-04T01:19:57.683Z,2.10
2023-05-04T01:22:26.134Z,2.53
2023-05-04T01:24:55.675Z,2.55
2023-05-04T01:27:38.979Z,2.80
2023-05-04T01:30:20.165Z,2.65
2023-05-04T01:32:49.635Z,3.13
2023-05-04T01:35:17.675Z,2.25
2023-05-04T01:37:47.443Z,3.15
2023-05-04T01:40:15.200Z,3.28
2023-05-04T01:42:42.661Z,2.55
2023-05-04T01:45:12.317Z,3.00
2023-05-04T01:47:39.738Z,2.63
2023-05-04T01:50:07.799Z,2.92
2023-05-04T01:52:35.212Z,2.33
2023-05-04T01:55:02.784Z,2.30
2023-05-04T01:57:30.578Z,2.47
2023-05-04T01:59:58.189Z,2.15
2023-05-04T02:02:25.755Z,1.75
2023-05-04T02:04:53.502Z,2.72
2023-05-04T02:07:21.010Z,2.65
2023-05-04T02:09:48.669Z,2.05
2023-05-04T02:12:16.277Z,2.85
2023-05-04T02:14:43.784Z,1.77
2023-05-04T02:17:11.416Z,3.03
2023-05-04T02:19:38.941Z,2.20
2023-05-04T02:22:07.416Z,2.28
2023-05-04T02:24:35.348Z,2.17
2023-05-04T02:27:03.033Z,2.38
2023-05-04T02:29:30.643Z,2.40
2023-05-04T02:31:58.092Z,2.28
2023-05-04T02:34:25.708Z,2.00
2023-05-04T02:39:22.400Z,2.60
2023-05-04T02:41:49.951Z,2.50
2023-05-04T02:44:20.942Z,1.98
2023-05-04T02:46:48.624Z,3.13
2023-05-04T02:49:16.113Z,2.40
2023-05-04T02:51:43.480Z,3.83
2023-05-04T02:54:10.984Z,3.42
2023-05-04T02:56:38.496Z,3.67
2023-05-04T02:59:06.210Z,2.83
2023-05-04T03:01:35.037Z,1.95
2023-05-04T03:04:02.779Z,3.00
2023-05-04T03:06:30.336Z,2.25
2023-05-04T03:08:57.916Z,3.30
2023-05-04T03:11:26.176Z,2.20
2023-05-04T03:13:53.760Z,3.05
2023-05-04T03:16:21.300Z,2.75
2023-05-04T03:18:51.233Z,4.05
2023-05-04T03:21:19.123Z,3.70
2023-05-04T03:23:46.909Z,4.22
2023-05-04T03:26:19.018Z,3.30
2023-05-04T03:28:48.066Z,3.28
2023-05-04T03:31:17.019Z,3.50
2023-05-04T03:33:45.206Z,2.55
2023-05-04T03:36:12.967Z,3.17
2023-05-04T03:38:41.895Z,4.80
2023-05-04T03:41:10.685Z,6.18
2023-05-04T03:43:40.056Z,3.83
2023-05-04T03:46:07.851Z,3.63
2023-05-04T03:48:35.491Z,3.92
2023-05-04T03:51:03.896Z,5.28
2023-05-04T03:53:33.934Z,3.30
2023-05-04T03:56:04.445Z,2.50
2023-05-04T03:58:36.887Z,3.10
2023-05-04T04:01:06.577Z,7.10
2023-05-04T04:03:36.221Z,4.30
2023-05-04T04:06:22.794Z,3.65
2023-05-04T04:08:51.618Z,3.50
2023-05-04T04:11:23.581Z,2.97
2023-05-04T04:13:51.832Z,3.30
2023-05-04T04:16:20.781Z,3.33
2023-05-04T04:18:48.858Z,3.65
2023-05-04T04:21:17.277Z,4.13
2023-05-04T04:23:45.570Z,4.37
2023-05-04T04:26:13.388Z,6.72
2023-05-04T04:28:41.173Z,3.22
2023-05-04T04:31:08.701Z,3.47
2023-05-04T04:33:36.361Z,7.35
2023-05-04T04:36:03.937Z,5.05
2023-05-04T04:38:31.382Z,5.15
2023-05-04T04:40:58.997Z,5.93
2023-05-04T04:43:26.402Z,4.60
2023-05-04T04:45:53.855Z,5.40
2023-05-04T04:48:22.165Z,5.10
2023-05-04T04:50:49.595Z,3.50
2023-05-04T04:53:17.077Z,3.30
2023-05-04T04:55:45.245Z,3.20
2023-05-04T04:58:12.564Z,2.88
2023-05-04T05:00:40.211Z,3.83
2023-05-04T05:03:07.812Z,3.38
2023-05-04T05:05:35.305Z,3.50
2023-05-04T05:08:03.147Z,3.88
2023-05-04T05:10:30.741Z,4.15
2023-05-04T05:12:58.422Z,3.70
2023-05-04T05:15:26.097Z,3.65
2023-05-04T05:17:53.598Z,3.30
2023-05-04T05:20:21.318Z,3.85
2023-05-04T05:22:48.765Z,3.38
2023-05-04T05:25:16.272Z,3.35
2023-05-04T05:27:44.099Z,2.67
2023-05-04T05:30:12.024Z,2.03
2023-05-04T05:32:39.694Z,2.10
2023-05-04T05:35:08.800Z,2.63
2023-05-04T05:37:36.434Z,2.30
2023-05-04T05:40:07.366Z,1.63
2023-05-04T05:42:35.076Z,1.83
2023-05-04T05:45:03.898Z,1.85
2023-05-04T05:47:31.580Z,2.00
2023-05-04T05:49:58.974Z,2.40
2023-05-04T05:52:26.670Z,3.10
2023-05-04T05:54:54.489Z,3.60
2023-05-04T05:57:21.961Z,2.42
2023-05-04T05:59:49.926Z,2.60
2023-05-04T06:02:17.384Z,2.00
2023-05-04T06:04:45.197Z,2.05
2023-05-04T06:07:15.940Z,3.30
2023-05-04T06:09:43.425Z,2.08
2023-05-04T06:12:12.925Z,1.83
2023-05-04T06:14:40.826Z,1.80
2023-05-04T06:17:08.607Z,2.25
2023-05-04T06:19:39.762Z,2.42
2023-05-04T06:22:07.625Z,1.90
2023-05-04T06:24:35.066Z,1.88
2023-05-04T06:27:02.793Z,1.88
2023-05-04T06:29:30.256Z,2.10
2023-05-04T06:31:58.366Z,1.65
2023-05-04T06:34:25.869Z,1.73
2023-05-04T06:36:53.336Z,1.80
2023-05-04T06:39:20.944Z,3.60
2023-05-04T06:41:48.327Z,3.20
2023-05-04T06:44:18.910Z,2.80
2023-05-04T06:46:46.564Z,2.75
2023-05-04T06:49:14.375Z,4.03
2023-05-04T06:51:41.693Z,3.20
2023-05-04T06:54:09.056Z,3.55
2023-05-04T06:56:38.007Z,5.35
2023-05-04T06:59:06.532Z,4.20
2023-05-04T07:01:34.111Z,2.90
2023-05-04T07:04:01.853Z,2.85
2023-05-04T07:06:30.127Z,2.85
2023-05-04T07:08:57.783Z,2.47
2023-05-04T07:11:26.239Z,3.17
2023-05-04T07:13:53.737Z,2.55
2023-05-04T07:16:21.554Z,2.60
2023-05-04T07:18:49.065Z,6.53
2023-05-04T07:21:27.694Z,2.97
2023-05-04T07:23:56.824Z,3.13
2023-05-04T07:26:24.400Z,3.47
2023-05-04T07:28:51.915Z,2.80
2023-05-04T07:31:19.554Z,2.47
2023-05-04T07:33:47.642Z,3.40
2023-05-04T07:36:15.093Z,4.32
2023-05-04T07:38:42.707Z,3.67
2023-05-04T07:41:10.217Z,2.65
2023-05-04T07:43:37.654Z,3.22
2023-05-04T07:46:05.377Z,2.75
2023-05-04T07:48:34.173Z,3.05
2023-05-04T07:51:01.636Z,3.72
2023-05-04T07:53:29.134Z,5.32
2023-05-04T07:55:56.986Z,6.07
2023-05-04T07:58:24.506Z,5.32
2023-05-04T08:00:52.055Z,3.72
2023-05-04T08:03:19.570Z,3.10
2023-05-04T08:05:47.207Z,3.67
2023-05-04T08:08:14.684Z,3.58
2023-05-04T08:10:42.231Z,3.42
2023-05-04T08:13:09.741Z,3.13
2023-05-04T08:15:37.470Z,2.83
2023-05-04T08:18:05.615Z,2.83
2023-05-04T08:20:33.160Z,2.75
2023-05-04T08:23:02.020Z,2.30
2023-05-04T08:25:29.909Z,2.45
2023-05-04T08:27:57.323Z,3.55
2023-05-04T08:30:26.109Z,2.60
2023-05-04T08:32:55.576Z,2.15
2023-05-04T08:35:27.081Z,2.70
2023-05-04T08:37:55.054Z,3.00
2023-05-04T08:40:23.741Z,3.20
2023-05-04T08:45:21.056Z,2.30
2023-05-04T08:47:48.605Z,2.58
2023-05-04T08:50:16.578Z,2.47
2023-05-04T08:52:48.298Z,2.67
2023-05-04T08:55:16.683Z,3.30
2023-05-04T08:57:44.746Z,3.60
2023-05-04T09:00:15.265Z,3.77
2023-05-04T09:02:43.739Z,3.50
2023-05-04T09:05:12.038Z,3.22
2023-05-04T09:07:39.572Z,3.05
2023-05-04T09:10:07.965Z,2.72
2023-05-04T09:12:37.125Z,2.88
2023-05-04T09:15:18.927Z,2.90
2023-05-04T09:18:09.144Z,3.63
2023-05-04T09:20:47.605Z,3.63
2023-05-04T09:23:17.201Z,3.40
2023-05-04T09:25:48.843Z,2.63
2023-05-04T09:28:18.253Z,4.20
2023-05-04T09:30:51.028Z,3.95
2023-05-04T09:33:26.913Z,2.90
2023-05-04T09:35:55.192Z,3.20
2023-05-04T09:38:32.900Z,2.58
2023-05-04T09:41:00.224Z,3.00
2023-05-04T09:43:41.200Z,2.90
2023-05-04T09:46:18.799Z,3.70
2023-05-04T09:48:57.157Z,3.38
2023-05-04T09:51:26.993Z,3.25
2023-05-04T09:53:56.622Z,3.83
2023-05-04T09:56:38.390Z,3.40
2023-05-04T09:59:05.998Z,5.05
2023-05-04T10:01:33.653Z,3.42
2023-05-04T10:04:03.320Z,3.33
2023-05-04T10:06:32.362Z,3.25
2023-05-04T10:09:00.231Z,4.30
2023-05-04T10:11:29.896Z,4.03
2023-05-04T10:13:57.629Z,4.43
2023-05-04T10:16:43.116Z,5.75
2023-05-04T10:19:40.941Z,4.13
2023-05-04T10:22:28.119Z,4.07
2023-05-04T10:25:32.689Z,3.78
2023-05-04T10:28:31.572Z,4.00
2023-05-04T10:30:59.326Z,4.50
2023-05-04T10:33:42.043Z,3.67
2023-05-04T10:36:10.974Z,4.30
2023-05-04T10:38:40.638Z,4.13
2023-05-04T10:41:18.930Z,4.03
2023-05-04T10:43:50.085Z,2.90
2023-05-04T10:46:22.365Z,3.80
2023-05-04T10:48:50.992Z,4.22
2023-05-04T10:51:35.758Z,3.28
2023-05-04T10:54:20.574Z,3.95
2023-05-04T10:56:48.805Z,2.88
2023-05-04T10:59:16.811Z,3.80
2023-05-04T11:01:44.679Z,4.35
2023-05-04T11:04:20.868Z,4.17
2023-05-04T11:07:06.365Z,4.38
2023-05-04T11:09:40.958Z,3.92
2023-05-04T11:12:11.516Z,3.33
2023-05-04T11:14:43.143Z,4.15
2023-05-04T11:19:51.298Z,5.03
2023-05-04T11:22:19.462Z,3.97
2023-05-04T11:24:50.696Z,4.73
2023-05-04T11:27:29.076Z,5.20
2023-05-04T11:29:59.617Z,4.30
2023-05-04T11:32:45.950Z,5.57
2023-05-04T11:35:18.715Z,4.80
2023-05-04T11:37:47.088Z,5.30
2023-05-04T11:40:26.771Z,5.05
2023-05-04T11:42:57.488Z,4.63
2023-05-04T11:45:41.171Z,3.95
2023-05-04T11:48:09.407Z,4.40
2023-05-04T11:50:37.099Z,8.45
2023-05-04T11:53:06.152Z,5.57
2023-05-04T11:58:07.805Z,4.03
2023-05-04T12:00:39.368Z,4.00
2023-05-04T12:03:16.797Z,3.90
2023-05-04T12:05:56.145Z,3.90
2023-05-04T12:08:34.049Z,4.35
2023-05-04T12:11:19.800Z,3.95
2023-05-04T12:14:14.115Z,4.75
2023-05-04T12:16:52.663Z,3.70
2023-05-04T12:19:20.292Z,4.90
2023-05-04T12:21:56.831Z,4.10
2023-05-04T12:24:27.010Z,3.80
2023-05-04T12:26:54.535Z,3.97
2023-05-04T12:29:21.918Z,4.75
2023-05-04T12:31:49.486Z,4.20
2023-05-04T12:34:17.009Z,4.20
2023-05-04T12:36:44.477Z,5.45
2023-05-04T12:39:11.880Z,4.53
2023-05-04T12:41:39.594Z,5.00
2023-05-04T12:44:08.083Z,5.25
2023-05-04T12:46:36.473Z,6.75
2023-05-04T12:49:04.054Z,5.45
2023-05-04T12:51:31.726Z,7.53
2023-05-04T12:53:59.360Z,6.13
2023-05-04T12:56:26.763Z,5.80
2023-05-04T12:58:54.168Z,5.47
2023-05-04T13:01:21.865Z,6.18
2023-05-04T13:03:49.447Z,6.43
2023-05-04T13:06:17.052Z,7.72
2023-05-04T13:08:46.421Z,10.48
2023-05-04T13:11:18.645Z,9.73
2023-05-04T13:13:46.193Z,11.10
2023-05-04T13:16:13.732Z,10.48
2023-05-04T13:18:41.549Z,12.20
2023-05-04T13:21:09.003Z,11.75
2023-05-04T13:23:36.628Z,12.23
2023-05-04T13:26:04.512Z,11.32
2023-05-04T13:28:31.842Z,10.63
2023-05-04T13:30:59.896Z,10.07
2023-05-04T13:33:29.352Z,10.50
2023-05-04T13:35:58.734Z,12.00
2023-05-04T13:38:26.339Z,9.60
2023-05-04T13:40:55.131Z,12.05
2023-05-04T13:43:22.467Z,8.63
2023-05-04T13:45:50.664Z,11.60
2023-05-04T13:48:18.036Z,10.82
2023-05-04T13:50:45.459Z,10.98
2023-05-04T13:53:12.855Z,12.90
2023-05-04T13:55:40.212Z,11.95
2023-05-04T13:58:07.694Z,10.05
2023-05-04T14:00:37.992Z,11.45
2023-05-04T14:03:05.567Z,10.00
2023-05-04T14:05:34.771Z,10.85
2023-05-04T14:10:29.735Z,10.55
2023-05-04T14:12:57.422Z,9.90
2023-05-04T14:15:26.801Z,9.40
2023-05-04T14:17:54.563Z,7.82
2023-05-04T14:20:22.182Z,12.77
2023-05-04T14:22:49.657Z,9.50
2023-05-04T14:25:17.139Z,10.15
2023-05-04T14:27:44.765Z,8.82
2023-05-04T14:30:12.764Z,10.60
2023-05-04T14:32:40.963Z,9.90
2023-05-04T14:35:10.237Z,9.70
2023-05-04T14:37:39.391Z,7.65
2023-05-04T14:40:09.778Z,7.22
2023-05-04T14:42:37.879Z,8.32
2023-05-04T14:45:07.663Z,8.07
2023-05-04T14:47:35.536Z,7.68
2023-05-04T14:50:03.556Z,7.95
2023-05-04T14:52:31.122Z,7.10
2023-05-04T14:54:58.710Z,5.90
2023-05-04T14:57:26.092Z,6.35
2023-05-04T14:59:53.467Z,8.18
2023-05-04T15:02:21.193Z,7.10
2023-05-04T15:04:49.003Z,7.25
2023-05-04T15:07:19.758Z,7.32
2023-05-04T15:09:47.259Z,7.75
2023-05-04T15:12:15.003Z,6.15
2023-05-04T15:14:42.847Z,7.18
2023-05-04T15:17:10.484Z,7.05
2023-05-04T15:19:38.944Z,6.32
2023-05-04T15:22:07.015Z,5.93
2023-05-04T15:24:34.945Z,5.57
2023-05-04T15:27:03.093Z,6.07
2023-05-04T15:29:30.904Z,5.55
2023-05-04T15:31:58.395Z,6.22
2023-05-04T15:34:25.854Z,5.75
2023-05-04T15:36:54.989Z,4.78
2023-05-04T15:41:49.930Z,4.40
2023-05-04T15:44:20.485Z,4.82
2023-05-04T15:46:48.308Z,6.82
2023-05-04T15:49:16.042Z,4.38
2023-05-04T15:51:43.519Z,5.03
2023-05-04T15:54:11.227Z,4.85
2023-05-04T15:56:38.915Z,4.15
2023-05-04T15:59:06.593Z,3.80
2023-05-04T16:01:34.156Z,4.35
2023-05-04T16:04:01.958Z,4.93
2023-05-04T16:06:30.598Z,4.40
2023-05-04T16:08:59.777Z,4.90
2023-05-04T16:13:55.537Z,5.10
2023-05-04T16:16:24.417Z,5.47
2023-05-04T16:18:52.754Z,4.70
2023-05-04T16:21:20.691Z,4.60
2023-05-04T16:23:48.014Z,4.65
2023-05-04T16:26:15.630Z,6.65
2023-05-04T16:28:44.615Z,8.27
2023-05-04T16:31:12.361Z,8.75
2023-05-04T16:33:46.380Z,8.70
2023-05-04T16:36:14.672Z,6.22
2023-05-04T16:38:42.133Z,5.95
2023-05-04T16:41:09.793Z,6.10
2023-05-04T16:43:37.509Z,7.07
2023-05-04T16:46:05.181Z,5.50
2023-05-04T16:48:32.644Z,5.30
2023-05-04T16:51:00.263Z,5.95
2023-05-04T16:53:27.600Z,5.18
2023-05-04T16:55:54.965Z,6.38
2023-05-04T16:58:22.648Z,6.35
2023-05-04T17:00:50.298Z,6.35
2023-05-04T17:03:17.777Z,5.72
2023-05-04T17:05:45.395Z,6.22
2023-05-04T17:08:13.212Z,5.07
2023-05-04T17:10:40.630Z,5.93
2023-05-04T17:13:08.398Z,5.90
2023-05-04T17:15:35.728Z,6.47
2023-05-04T17:18:03.357Z,8.07
2023-05-04T17:20:31.274Z,13.23
2023-05-04T17:22:58.837Z,16.70
2023-05-04T17:25:27.106Z,13.95
2023-05-04T17:27:54.922Z,12.80
2023-05-04T17:30:22.654Z,12.02
2023-05-04T17:32:50.520Z,11.00
2023-05-04T17:35:25.208Z,14.80
2023-05-04T17:37:58.773Z,13.23
2023-05-04T17:40:27.397Z,11.55
2023-05-04T17:42:56.022Z,11.18
2023-05-04T17:45:23.501Z,12.20
2023-05-04T17:47:51.532Z,12.50
2023-05-04T17:50:19.600Z,10.02
2023-05-04T17:52:52.557Z,9.52
2023-05-04T17:55:20.819Z,8.63
2023-05-04T17:57:48.207Z,7.85
2023-05-04T18:00:16.048Z,7.25
2023-05-04T18:02:44.133Z,8.68
2023-05-04T18:05:12.724Z,7.10
2023-05-04T18:07:40.094Z,7.78
2023-05-04T18:10:08.076Z,7.85
2023-05-04T18:12:38.316Z,8.97
2023-05-04T18:15:08.384Z,9.77
2023-05-04T18:17:37.150Z,8.32
2023-05-04T18:20:09.988Z,9.55
2023-05-04T18:22:37.923Z,7.78
2023-05-04T18:25:06.202Z,8.30
2023-05-04T18:27:35.124Z,7.72
2023-05-04T18:30:04.679Z,8.68
2023-05-04T18:32:32.502Z,6.68
2023-05-04T18:35:00.868Z,7.97
2023-05-04T18:37:31.470Z,8.43
2023-05-04T18:39:59.452Z,9.50
2023-05-04T18:42:27.130Z,9.68
2023-05-04T18:44:55.621Z,9.63
2023-05-04T18:47:23.130Z,8.48
2023-05-04T18:49:54.545Z,7.63
2023-05-04T18:52:23.022Z,7.97
2023-05-04T18:54:50.504Z,8.80
2023-05-04T18:57:18.030Z,10.13
2023-05-04T18:59:45.684Z,8.20
2023-05-04T19:02:13.249Z,10.00
2023-05-04T19:04:40.805Z,10.77
2023-05-04T19:07:09.128Z,8.88
2023-05-04T19:09:36.763Z,9.43
2023-05-04T19:12:04.677Z,9.60
2023-05-04T19:14:32.761Z,10.93
2023-05-04T19:17:00.750Z,11.75
2023-05-04T19:19:28.120Z,9.70
2023-05-04T19:21:55.675Z,10.73
2023-05-04T19:24:23.183Z,10.55
2023-05-04T19:26:50.993Z,9.60
2023-05-04T19:29:18.369Z,11.02
2023-05-04T19:31:45.891Z,9.40
2023-05-04T19:34:15.081Z,10.27
2023-05-04T19:36:43.718Z,9.93
2023-05-04T19:39:11.362Z,11.95
2023-05-04T19:41:38.929Z,11.13
2023-05-04T19:44:09.363Z,10.07
2023-05-04T19:46:37.193Z,10.77
2023-05-04T19:49:04.893Z,11.52
2023-05-04T19:51:32.470Z,9.82
2023-05-04T19:54:00.103Z,9.73
2023-05-04T19:56:27.770Z,9.63
2023-05-04T19:58:55.232Z,10.68
2023-05-04T20:01:23.072Z,11.10
2023-05-04T20:03:50.921Z,10.85
2023-05-04T20:06:18.374Z,11.30
2023-05-04T20:08:45.953Z,10.32
2023-05-04T20:11:14.044Z,11.30
2023-05-04T20:13:42.164Z,10.90
2023-05-04T20:16:09.749Z,11.45
2023-05-04T20:18:37.416Z,9.27
2023-05-04T20:21:04.900Z,10.48
2023-05-04T20:23:32.535Z,12.30
2023-05-04T20:26:00.172Z,11.82
2023-05-04T20:28:27.764Z,13.65
2023-05-04T20:30:55.302Z,10.07
2023-05-04T20:33:22.868Z,9.50
2023-05-04T20:35:50.364Z,9.85
2023-05-04T20:38:18.003Z,8.85
2023-05-04T20:40:45.592Z,11.57
2023-05-04T20:43:13.312Z,14.05
2023-05-04T20:45:40.662Z,13.10
2023-05-04T20:48:08.519Z,12.73
2023-05-04T20:50:36.092Z,10.55
2023-05-04T20:53:03.726Z,10.63
2023-05-04T20:55:31.381Z,10.68
2023-05-04T20:57:58.980Z,10.48
2023-05-04T21:00:26.577Z,10.98
2023-05-04T21:02:54.272Z,12.73
2023-05-04T21:05:21.881Z,10.25
2023-05-04T21:07:51.499Z,10.43
2023-05-04T21:10:19.702Z,9.77
2023-05-04T21:12:47.621Z,8.97
2023-05-04T21:15:15.905Z,9.43
2023-05-04T21:17:43.744Z,9.70
2023-05-04T21:20:11.200Z,9.70
2023-05-04T21:22:38.607Z,10.48
2023-05-04T21:25:06.485Z,9.07
2023-05-04T21:27:33.845Z,11.80
2023-05-04T21:30:03.914Z,11.65
2023-05-04T21:32:31.404Z,12.35
2023-05-04T21:34:59.388Z,12.35
2023-05-04T21:37:26.888Z,11.15
2023-05-04T21:39:57.424Z,12.57
2023-05-04T21:42:25.027Z,11.05
2023-05-04T21:44:56.415Z,9.80
2023-05-04T21:47:25.639Z,10.20
2023-05-04T21:52:21.506Z,9.98
2023-05-04T21:54:49.113Z,11.18
2023-05-04T21:57:16.602Z,11.40
2023-05-04T21:59:48.907Z,10.10
2023-05-04T22:02:17.078Z,11.93
2023-05-04T22:04:44.997Z,9.30
2023-05-04T22:07:12.620Z,9.13
2023-05-04T22:09:40.098Z,7.82
2023-05-04T22:12:07.727Z,8.43
2023-05-04T22:14:35.087Z,8.85
2023-05-04T22:17:03.151Z,9.95
2023-05-04T22:19:30.864Z,9.00
2023-05-04T22:21:58.355Z,9.48
2023-05-04T22:24:26.253Z,8.02
2023-05-04T22:26:53.971Z,9.32
2023-05-04T22:29:21.791Z,8.57
2023-05-04T22:31:49.389Z,10.13
2023-05-04T22:34:16.978Z,10.48
2023-05-04T22:36:44.381Z,10.10
2023-05-04T22:39:12.593Z,9.75
2023-05-04T22:41:40.350Z,7.70
2023-05-04T22:44:08.069Z,7.70
2023-05-04T22:46:35.439Z,7.78
2023-05-04T22:49:03.900Z,8.63
2023-05-04T22:51:31.921Z,9.88
2023-05-04T22:53:59.380Z,8.65
2023-05-04T22:56:26.823Z,8.27
2023-05-04T22:58:54.293Z,7.45
2023-05-04T23:01:22.027Z,8.25
2023-05-04T23:03:49.597Z,7.60
2023-05-04T23:06:17.433Z,8.15
2023-05-04T23:08:45.125Z,7.65
2023-05-04T23:11:12.712Z,8.63
2023-05-04T23:13:40.063Z,7.70
2023-05-04T23:16:07.509Z,7.88
2023-05-04T23:18:35.233Z,8.18
2023-05-04T23:21:02.701Z,8.55
2023-05-04T23:23:30.569Z,8.23
2023-05-04T23:25:58.157Z,10.13
2023-05-04T23:28:25.568Z,8.65
2023-05-04T23:30:54.902Z,9.35
2023-05-04T23:33:22.299Z,9.27
2023-05-04T23:35:53.064Z,10.05
2023-05-04T23:38:20.521Z,9.93
2023-05-04T23:40:48.481Z,8.52
2023-05-04T23:43:16.016Z,8.07
2023-05-04T23:45:43.637Z,8.23
2023-05-04T23:48:11.100Z,6.65
2023-05-04T23:50:38.474Z,8.15
2023-05-04T23:53:05.823Z,10.38
2023-05-04T23:55:33.428Z,7.70
2023-05-04T23:58:01.960Z,8.48
